createdAt,value
2022-07-28T00:01:14.512Z,94946.34
2022-07-28T00:04:21.780Z,94951.25
2022-07-28T00:07:24.949Z,94959.53
2022-07-28T00:10:27.995Z,94959.81
2022-07-28T00:13:31.095Z,94970.47
2022-07-28T00:16:35.659Z,94978.50
2022-07-28T00:19:38.808Z,94984.94
2022-07-28T00:22:46.250Z,94979.06
2022-07-28T00:25:49.359Z,94996.63
2022-07-28T00:28:52.434Z,94983.25
2022-07-28T00:31:57.209Z,94984.63
2022-07-28T00:35:00.642Z,94982.69
2022-07-28T00:38:05.461Z,94980.84
2022-07-28T00:41:12.301Z,94975.59
2022-07-28T00:44:15.882Z,94982.59
2022-07-28T00:47:21.270Z,94966.94
2022-07-28T00:50:24.388Z,94952.44
2022-07-28T00:53:27.531Z,94924.06
2022-07-28T00:56:30.553Z,94913.88
2022-07-28T00:59:34.070Z,94933.41
2022-07-28T01:02:38.843Z,94971.47
2022-07-28T01:05:49.411Z,94992.94
2022-07-28T01:09:03.158Z,94987.53
2022-07-28T01:12:16.248Z,94994.38
2022-07-28T01:15:27.753Z,94991.97
2022-07-28T01:18:37.764Z,94991.34
2022-07-28T01:21:42.777Z,94977.56
2022-07-28T01:25:03.056Z,94976.16
2022-07-28T01:28:19.389Z,94963.53
2022-07-28T01:31:27.329Z,94973.19
2022-07-28T01:34:33.720Z,94963.28
2022-07-28T01:37:42.844Z,94953.72
2022-07-28T01:40:50.158Z,94951.19
2022-07-28T01:44:02.642Z,94946.41
2022-07-28T01:47:09.311Z,94953.56
2022-07-28T01:50:14.997Z,94957.06
2022-07-28T01:53:19.126Z,94964.47
2022-07-28T01:56:23.983Z,94961.28
2022-07-28T01:59:29.626Z,94954.66
2022-07-28T02:02:38.585Z,94964.28
2022-07-28T02:05:43.981Z,94963.00
2022-07-28T02:08:49.551Z,94974.00
2022-07-28T02:11:55.341Z,94971.44
2022-07-28T02:15:01.013Z,94971.44
2022-07-28T02:18:07.356Z,94963.03
2022-07-28T02:21:13.113Z,94961.97
2022-07-28T02:24:20.443Z,94970.97
2022-07-28T02:27:30.474Z,94982.41
2022-07-28T02:30:37.203Z,94981.38
2022-07-28T02:33:58.918Z,94978.19
2022-07-28T02:37:09.732Z,94990.25
2022-07-28T02:40:16.433Z,94982.81
2022-07-28T02:43:25.835Z,94982.63
2022-07-28T02:46:53.820Z,94986.03
2022-07-28T02:50:00.953Z,94992.09
2022-07-28T02:53:15.005Z,94978.63
2022-07-28T02:56:19.783Z,94987.63
2022-07-28T02:59:24.581Z,94994.81
2022-07-28T03:02:30.846Z,95007.16
2022-07-28T03:05:36.068Z,95018.84
2022-07-28T03:08:39.273Z,95018.44
2022-07-28T03:11:53.557Z,95016.38
2022-07-28T03:14:56.760Z,95019.59
2022-07-28T03:18:01.042Z,95019.03
2022-07-28T03:21:05.706Z,95012.47
2022-07-28T03:24:11.072Z,95015.53
2022-07-28T03:27:21.651Z,95008.19
2022-07-28T03:30:29.146Z,95011.56
2022-07-28T03:33:33.483Z,95010.09
2022-07-28T03:36:45.852Z,95013.56
2022-07-28T03:39:50.598Z,95012.31
2022-07-28T03:42:55.372Z,94995.00
2022-07-28T03:45:58.458Z,95001.59
2022-07-28T03:49:01.633Z,94995.13
2022-07-28T03:52:06.560Z,94992.66
2022-07-28T03:55:10.946Z,94990.88
2022-07-28T03:58:13.988Z,94987.38
2022-07-28T04:01:17.054Z,94977.75
2022-07-28T04:04:20.251Z,94961.53
2022-07-28T04:07:24.787Z,94964.53
2022-07-28T04:10:27.955Z,94950.50
2022-07-28T04:13:32.329Z,94941.34
2022-07-28T04:16:35.690Z,94932.97
2022-07-28T04:19:38.774Z,94924.09
2022-07-28T04:22:43.400Z,94920.25
2022-07-28T04:25:46.426Z,94901.84
2022-07-28T04:28:49.474Z,94906.69
2022-07-28T04:31:52.492Z,94912.75
2022-07-28T04:34:55.530Z,94915.41
2022-07-28T04:37:59.964Z,94917.09
2022-07-28T04:41:03.128Z,94939.41
2022-07-28T04:44:06.758Z,94944.44
2022-07-28T04:47:09.961Z,94967.38
2022-07-28T04:50:15.850Z,94982.28
2022-07-28T04:53:20.320Z,94978.25
2022-07-28T04:56:23.417Z,94982.53
2022-07-28T04:59:27.004Z,94986.47
2022-07-28T05:02:31.200Z,94982.56
2022-07-28T05:05:34.345Z,94975.81
2022-07-28T05:08:38.844Z,94971.56
2022-07-28T05:11:41.999Z,94962.00
2022-07-28T05:14:45.078Z,94947.19
2022-07-28T05:17:48.095Z,94947.97
2022-07-28T05:20:51.159Z,94955.56
2022-07-28T05:23:55.607Z,94970.56
2022-07-28T05:26:58.748Z,94985.88
2022-07-28T05:30:01.781Z,94985.09
2022-07-28T05:33:04.870Z,94985.53
2022-07-28T05:36:08.329Z,94994.22
2022-07-28T05:39:13.006Z,95001.06
2022-07-28T05:42:16.075Z,95007.59
2022-07-28T05:45:19.193Z,95017.94
2022-07-28T05:48:23.462Z,95018.13
2022-07-28T05:51:26.812Z,94997.09
2022-07-28T05:54:31.258Z,94984.66
2022-07-28T05:57:34.316Z,94980.06
2022-07-28T06:00:37.654Z,94977.72
2022-07-28T06:03:42.500Z,94992.69
2022-07-28T06:06:45.854Z,94996.94
2022-07-28T06:09:50.421Z,94996.50
2022-07-28T06:12:55.526Z,95000.44
2022-07-28T06:15:59.726Z,94995.47
2022-07-28T06:19:02.822Z,94994.09
2022-07-28T06:22:06.390Z,94996.09
2022-07-28T06:25:13.878Z,95002.72
2022-07-28T06:28:18.832Z,94998.28
2022-07-28T06:31:22.042Z,94996.56
2022-07-28T06:34:25.427Z,94999.19
2022-07-28T06:37:28.478Z,94999.09
2022-07-28T06:40:32.922Z,95002.03
2022-07-28T06:43:39.022Z,94998.78
2022-07-28T06:46:42.488Z,94992.81
2022-07-28T06:49:45.761Z,94989.13
2022-07-28T06:52:48.907Z,94987.38
2022-07-28T06:55:53.428Z,95002.97
2022-07-28T06:58:56.512Z,95009.41
2022-07-28T07:02:01.899Z,95009.75
2022-07-28T07:05:05.244Z,95002.41
2022-07-28T07:08:08.359Z,95001.34
2022-07-28T07:11:13.574Z,95010.00
2022-07-28T07:14:16.984Z,94996.19
2022-07-28T07:17:20.144Z,94992.56
2022-07-28T07:20:23.270Z,94997.63
2022-07-28T07:23:26.388Z,95001.00
2022-07-28T07:26:30.967Z,94998.56
2022-07-28T07:29:34.101Z,95003.69
2022-07-28T07:32:37.223Z,95009.53
2022-07-28T07:35:40.239Z,95011.16
2022-07-28T07:38:43.373Z,95010.69
2022-07-28T07:41:47.896Z,95020.78
2022-07-28T07:44:50.988Z,95027.31
2022-07-28T07:47:54.039Z,95032.34
2022-07-28T07:50:57.084Z,95034.78
2022-07-28T07:54:00.341Z,95030.31
2022-07-28T07:57:04.855Z,95031.25
2022-07-28T08:00:28.008Z,95036.13
2022-07-28T08:03:32.878Z,95040.56
2022-07-28T08:06:36.002Z,95048.91
2022-07-28T08:09:39.184Z,95055.72
2022-07-28T08:12:53.439Z,95060.38
2022-07-28T08:15:59.231Z,95069.13
2022-07-28T08:19:02.647Z,95052.03
2022-07-28T08:22:05.819Z,95059.56
2022-07-28T08:25:09.719Z,95058.00
2022-07-28T08:28:14.478Z,95061.69
2022-07-28T08:31:21.932Z,95066.84
2022-07-28T08:34:31.337Z,95066.19
2022-07-28T08:37:38.299Z,95061.69
2022-07-28T08:40:43.297Z,95066.13
2022-07-28T08:43:51.173Z,95074.69
2022-07-28T08:46:54.412Z,95077.25
2022-07-28T08:49:59.555Z,95078.31
2022-07-28T08:53:02.971Z,95069.38
2022-07-28T08:56:07.438Z,95078.66
2022-07-28T08:59:11.969Z,95095.28
2022-07-28T09:02:16.621Z,95102.38
2022-07-28T09:05:21.301Z,95091.88
2022-07-28T09:08:24.542Z,95102.66
2022-07-28T09:11:28.995Z,95088.06
2022-07-28T09:14:33.992Z,95089.59
2022-07-28T09:17:38.122Z,95091.03
2022-07-28T09:20:42.162Z,95089.88
2022-07-28T09:23:46.598Z,95089.47
2022-07-28T09:27:02.074Z,95090.03
2022-07-28T09:30:07.885Z,95078.22
2022-07-28T09:33:41.758Z,95057.69
2022-07-28T09:36:45.788Z,95059.81
2022-07-28T09:39:52.970Z,95062.66
2022-07-28T09:42:58.279Z,95068.66
2022-07-28T09:46:08.201Z,95075.63
2022-07-28T09:49:11.515Z,95079.88
2022-07-28T09:52:14.978Z,95083.84
2022-07-28T09:55:19.202Z,95086.81
2022-07-28T09:58:22.338Z,95074.41
2022-07-28T10:01:35.205Z,95067.19
2022-07-28T10:04:41.992Z,95083.19
2022-07-28T10:07:50.204Z,95076.69
2022-07-28T10:11:02.349Z,95081.09
2022-07-28T10:14:07.437Z,95069.72
2022-07-28T10:17:12.262Z,95073.88
2022-07-28T10:20:16.693Z,95077.19
2022-07-28T10:23:21.553Z,95070.03
2022-07-28T10:26:30.381Z,95073.53
2022-07-28T10:29:33.618Z,95075.25
2022-07-28T10:32:42.781Z,95069.88
2022-07-28T10:35:55.219Z,95065.75
2022-07-28T10:39:07.779Z,95064.69
2022-07-28T10:42:12.600Z,95051.69
2022-07-28T10:45:15.842Z,95048.59
2022-07-28T10:48:23.935Z,95041.72
2022-07-28T10:51:28.203Z,95047.41
2022-07-28T10:54:33.365Z,95037.72
2022-07-28T10:57:44.858Z,95036.63
2022-07-28T11:01:06.230Z,95033.31
2022-07-28T11:04:11.320Z,95027.97
2022-07-28T11:07:16.922Z,95022.09
2022-07-28T11:10:21.416Z,95009.34
2022-07-28T11:13:28.860Z,95011.03
2022-07-28T11:16:36.932Z,95008.50
2022-07-28T11:23:57.704Z,94997.56
2022-07-28T11:27:04.005Z,95002.97
2022-07-28T11:30:07.794Z,95003.75
2022-07-28T11:33:10.934Z,94993.31
2022-07-28T11:36:15.482Z,94987.91
2022-07-28T11:39:29.366Z,94985.75
2022-07-28T11:42:33.894Z,94992.34
2022-07-28T11:45:38.783Z,94982.03
2022-07-28T11:48:45.210Z,94983.00
2022-07-28T11:52:24.392Z,94978.31
2022-07-28T11:55:55.127Z,94987.19
2022-07-28T11:58:58.456Z,94984.78
2022-07-28T12:02:01.551Z,94978.19
2022-07-28T12:05:12.237Z,94977.06
2022-07-28T12:08:15.556Z,94969.69
2022-07-28T12:11:20.667Z,94960.66
2022-07-28T12:14:24.174Z,94966.63
2022-07-28T12:17:34.907Z,94968.00
2022-07-28T12:20:48.866Z,94965.38
2022-07-28T12:23:55.459Z,94971.22
2022-07-28T12:27:00.744Z,94967.78
2022-07-28T12:30:05.704Z,94964.78
2022-07-28T12:33:18.824Z,94967.59
2022-07-28T12:36:24.330Z,94969.78
2022-07-28T12:39:27.480Z,94969.81
2022-07-28T12:42:33.487Z,94966.50
2022-07-28T12:45:46.242Z,94956.84
2022-07-28T12:48:50.025Z,94959.09
2022-07-28T12:51:53.113Z,94963.50
2022-07-28T12:54:56.813Z,94964.00
2022-07-28T12:58:01.810Z,94968.19
2022-07-28T13:01:09.041Z,94962.53
2022-07-28T13:04:12.752Z,94966.19
2022-07-28T13:07:25.166Z,94959.81
2022-07-28T13:10:30.140Z,94954.56
2022-07-28T13:13:48.194Z,94951.31
2022-07-28T13:16:58.880Z,94943.09
2022-07-28T13:20:07.013Z,94939.81
2022-07-28T13:23:10.061Z,94944.22
2022-07-28T13:26:13.160Z,94936.13
2022-07-28T13:29:17.674Z,94935.78
2022-07-28T13:32:20.874Z,94929.31
2022-07-28T13:35:24.049Z,94931.59
2022-07-28T13:38:27.410Z,94939.44
2022-07-28T13:41:57.357Z,94954.13
2022-07-28T13:44:58.837Z,94958.13
2022-07-28T13:48:01.881Z,94965.63
2022-07-28T13:51:05.041Z,94981.75
2022-07-28T13:54:10.545Z,94984.47
2022-07-28T13:57:13.756Z,94985.97
2022-07-28T14:00:22.525Z,94987.38
2022-07-28T14:03:26.040Z,94979.44
2022-07-28T14:06:29.315Z,94967.31
2022-07-28T14:09:35.164Z,94974.72
2022-07-28T14:12:42.184Z,94971.91
2022-07-28T14:15:50.217Z,94964.38
2022-07-28T14:19:05.415Z,94961.81
2022-07-28T14:22:13.173Z,94956.84
2022-07-28T14:25:20.893Z,94941.03
2022-07-28T14:28:25.147Z,94937.56
2022-07-28T14:31:30.013Z,94940.81
2022-07-28T14:34:34.362Z,94941.66
2022-07-28T14:38:11.206Z,94943.72
2022-07-28T14:41:00.864Z,94935.66
2022-07-28T14:44:03.976Z,94922.81
2022-07-28T14:47:08.693Z,94920.06
2022-07-28T14:50:12.016Z,94924.66
2022-07-28T14:53:17.331Z,94927.06
2022-07-28T14:56:20.521Z,94935.19
2022-07-28T14:59:23.670Z,94935.38
2022-07-28T15:02:29.449Z,94921.72
2022-07-28T15:05:33.030Z,94924.22
2022-07-28T15:08:36.178Z,94927.75
2022-07-28T15:11:41.202Z,94930.44
2022-07-28T15:14:44.439Z,94932.44
2022-07-28T15:17:48.930Z,94949.81
2022-07-28T15:20:52.042Z,94954.72
2022-07-28T15:23:55.149Z,94948.06
2022-07-28T15:26:58.499Z,94942.72
2022-07-28T15:30:02.884Z,94937.25
2022-07-28T15:33:07.983Z,94930.88
2022-07-28T15:36:11.241Z,94925.59
2022-07-28T15:39:15.089Z,94920.88
2022-07-28T15:42:18.419Z,94913.56
2022-07-28T15:45:21.525Z,94911.69
2022-07-28T15:48:26.246Z,94915.41
2022-07-28T15:51:29.310Z,94919.09
2022-07-28T15:54:32.577Z,94922.91
2022-07-28T15:57:37.964Z,94932.31
2022-07-28T16:00:41.304Z,94931.59
2022-07-28T16:03:45.813Z,94939.06
2022-07-28T16:07:06.489Z,94927.53
2022-07-28T16:10:10.335Z,94935.28
2022-07-28T16:13:13.897Z,94939.47
2022-07-28T16:16:17.019Z,94948.09
2022-07-28T16:19:46.493Z,94960.69
2022-07-28T16:22:44.619Z,94972.47
2022-07-28T16:25:47.754Z,94989.31
2022-07-28T16:28:50.860Z,94990.78
2022-07-28T16:31:53.971Z,94988.22
2022-07-28T16:34:58.480Z,94992.03
2022-07-28T16:38:02.631Z,94991.88
2022-07-28T16:41:05.729Z,95001.88
2022-07-28T16:44:08.917Z,94997.56
2022-07-28T16:47:12.359Z,95002.44
2022-07-28T16:50:19.104Z,95011.06
2022-07-28T16:53:22.231Z,95018.91
2022-07-28T16:56:25.404Z,95021.38
2022-07-28T16:59:37.517Z,95031.44
2022-07-28T17:02:51.129Z,95033.81
2022-07-28T17:05:55.807Z,95028.47
2022-07-28T17:08:59.008Z,95034.28
2022-07-28T17:12:02.092Z,95044.66
2022-07-28T17:15:06.444Z,95039.84
2022-07-28T17:18:23.010Z,95049.97
2022-07-28T17:21:30.111Z,95062.13
2022-07-28T17:24:33.210Z,95069.03
2022-07-28T17:27:38.237Z,95077.38
2022-07-28T17:30:42.958Z,95083.84
2022-07-28T17:33:46.074Z,95093.78
2022-07-28T17:36:50.637Z,95098.66
2022-07-28T17:39:53.978Z,95099.69
2022-07-28T17:42:57.603Z,95099.19
2022-07-28T17:46:01.220Z,95102.25
2022-07-28T17:49:08.064Z,95116.19
2022-07-28T17:52:12.668Z,95119.19
2022-07-28T17:55:58.101Z,95129.19
2022-07-28T17:58:56.757Z,95135.88
2022-07-28T18:01:59.795Z,95141.69
2022-07-28T18:05:02.887Z,95144.50
2022-07-28T18:08:08.713Z,95156.63
2022-07-28T18:11:12.078Z,95150.72
2022-07-28T18:14:17.858Z,95154.00
2022-07-28T18:17:22.184Z,95160.88
2022-07-28T18:20:25.815Z,95160.28
2022-07-28T18:23:30.445Z,95172.81
2022-07-28T18:26:33.549Z,95163.50
2022-07-28T18:29:38.424Z,95166.69
2022-07-28T18:32:41.927Z,95165.13
2022-07-28T18:35:45.223Z,95155.19
2022-07-28T18:38:49.755Z,95148.25
2022-07-28T18:41:56.164Z,95138.22
2022-07-28T18:44:59.388Z,95129.91
2022-07-28T18:48:04.361Z,95111.13
2022-07-28T18:51:07.557Z,95097.75
2022-07-28T18:54:12.226Z,95083.28
2022-07-28T18:57:15.595Z,95069.19
2022-07-28T19:00:18.940Z,95056.84
2022-07-28T19:03:22.164Z,95055.81
2022-07-28T19:06:25.303Z,95048.06
2022-07-28T19:09:29.982Z,95060.69
2022-07-28T19:12:40.030Z,95052.16
2022-07-28T19:15:43.394Z,95063.28
2022-07-28T19:18:46.583Z,95031.84
2022-07-28T19:21:49.865Z,95053.72
2022-07-28T19:24:55.185Z,95057.22
2022-07-28T19:27:58.866Z,95065.63
2022-07-28T19:31:10.400Z,95078.25
2022-07-28T19:37:34.253Z,95107.91
2022-07-28T19:40:39.921Z,95119.59
2022-07-28T19:43:43.467Z,95139.06
2022-07-28T19:46:48.983Z,95145.75
2022-07-28T19:49:52.174Z,95153.31
2022-07-28T19:52:55.202Z,95162.75
2022-07-28T19:56:01.237Z,95177.09
2022-07-28T19:59:05.276Z,95186.09
2022-07-28T20:02:08.621Z,95199.22
2022-07-28T20:05:12.123Z,95201.94
2022-07-28T20:08:15.193Z,95214.66
2022-07-28T20:11:19.729Z,95216.44
2022-07-28T20:14:22.850Z,95215.91
2022-07-28T20:17:38.161Z,95232.31
2022-07-28T20:20:42.457Z,95234.31
2022-07-28T20:23:45.550Z,95240.38
2022-07-28T20:26:50.000Z,95242.06
2022-07-28T20:29:53.082Z,95246.31
2022-07-28T20:32:56.187Z,95256.94
2022-07-28T20:35:59.368Z,95259.72
2022-07-28T20:39:11.499Z,95258.81
2022-07-28T20:42:27.183Z,95267.69
2022-07-28T20:45:31.878Z,95267.13
2022-07-28T20:48:35.866Z,95263.22
2022-07-28T20:51:39.320Z,95263.31
2022-07-28T20:54:53.629Z,95256.75
2022-07-28T20:57:58.953Z,95265.38
2022-07-28T21:01:03.553Z,95273.06
2022-07-28T21:04:06.973Z,95268.47
2022-07-28T21:07:14.521Z,95266.28
2022-07-28T21:10:17.864Z,95261.47
2022-07-28T21:13:22.897Z,95264.16
2022-07-28T21:16:26.043Z,95257.84
2022-07-28T21:19:29.250Z,95257.72
2022-07-28T21:22:32.369Z,95265.75
2022-07-28T21:25:35.747Z,95273.63
2022-07-28T21:28:57.841Z,95275.06
2022-07-28T21:32:04.741Z,95273.53
2022-07-28T21:35:14.081Z,95279.94
2022-07-28T21:38:17.426Z,95279.72
2022-07-28T21:41:25.327Z,95280.28
2022-07-28T21:44:29.826Z,95273.84
2022-07-28T21:47:34.260Z,95263.50
2022-07-28T21:50:39.278Z,95267.97
2022-07-28T21:53:44.907Z,95278.50
2022-07-28T21:56:48.506Z,95274.78
2022-07-28T21:59:54.290Z,95262.97
2022-07-28T22:02:57.412Z,95253.06
2022-07-28T22:06:03.403Z,95250.88
2022-07-28T22:09:06.525Z,95247.59
2022-07-28T22:12:10.497Z,95258.75
2022-07-28T22:15:15.177Z,95266.50
2022-07-28T22:18:18.456Z,95268.06
2022-07-28T22:21:23.258Z,95253.16
2022-07-28T22:24:26.319Z,95253.97
2022-07-28T22:27:29.426Z,95261.13
2022-07-28T22:30:34.077Z,95263.03
2022-07-28T22:33:37.333Z,95259.13
2022-07-28T22:36:40.547Z,95247.22
2022-07-28T22:39:43.550Z,95248.34
2022-07-28T22:42:48.424Z,95242.47
2022-07-28T22:45:52.904Z,95241.03
2022-07-28T22:48:56.387Z,95242.81
2022-07-28T22:51:59.478Z,95246.09
2022-07-28T22:58:22.772Z,95240.13
2022-07-28T23:01:27.359Z,95232.22
2022-07-28T23:04:31.585Z,95233.09
2022-07-28T23:07:51.279Z,95231.00
2022-07-28T23:10:57.846Z,95225.06
2022-07-28T23:14:00.957Z,95224.03
2022-07-28T23:17:05.780Z,95218.09
2022-07-28T23:20:09.586Z,95222.69
2022-07-28T23:23:14.926Z,95227.28
2022-07-28T23:26:18.080Z,95216.53
2022-07-28T23:29:21.169Z,95227.94
2022-07-28T23:32:25.697Z,95223.66
2022-07-28T23:35:28.816Z,95228.38
2022-07-28T23:38:31.902Z,95224.22
2022-07-28T23:41:35.002Z,95213.88
2022-07-28T23:44:38.160Z,95214.00
2022-07-28T23:47:42.718Z,95210.34
2022-07-28T23:50:45.802Z,95217.44
2022-07-28T23:53:52.983Z,95224.94
2022-07-28T23:56:59.174Z,95222.13
